Time;durP1;ratioP1;P1;durP2;ratioP2;P2;SDS_P1;SDS_P2;PMS_P1;PMS_P2;Temp;Humidity;BMP_temperature;BMP_pressure;BME280_temperature;BME280_humidity;BME280_pressure;Samples;Min_cycle;Max_cycle;Signal;HPM_P1;HPM_P2
2023/12/06 00:00:30;;;;;;;3.28;3.00;;;;;;;5.66;100.00;99374.09;10333803;28;20050;-63
2023/12/06 00:05:32;;;;;;;3.75;2.97;;;;;;;5.69;100.00;99382.72;10334843;28;20492;-64
2023/12/06 00:10:33;;;;;;;2.90;2.70;;;;;;;5.66;100.00;99384.66;10335391;28;20785;-63
2023/12/06 00:15:35;;;;;;;3.42;3.03;;;;;;;5.69;100.00;99388.88;10341090;28;20046;-63
2023/12/06 00:20:36;;;;;;;3.17;2.88;;;;;;;5.68;100.00;99396.91;10334539;28;20681;-64
2023/12/06 00:25:37;;;;;;;3.38;3.08;;;;;;;5.66;100.00;99386.47;10345436;28;20700;-63
2023/12/06 00:30:39;;;;;;;3.00;2.75;;;;;;;5.63;100.00;99390.16;10331179;28;20567;-63
2023/12/06 00:35:40;;;;;;;3.08;2.78;;;;;;;5.66;100.00;99399.66;10334080;28;20041;-64
2023/12/06 00:40:42;;;;;;;3.63;3.33;;;;;;;5.58;100.00;99408.13;10336463;28;20135;-65
2023/12/06 00:45:43;;;;;;;3.90;3.25;;;;;;;5.38;100.00;99370.00;10354155;28;20050;-63
2023/12/06 00:50:45;;;;;;;3.17;2.88;;;;;;;5.60;100.00;99413.28;10342887;28;20053;-63
2023/12/06 00:55:46;;;;;;;3.50;2.80;;;;;;;5.59;100.00;99399.25;10337402;28;20062;-62
2023/12/06 01:00:48;;;;;;;3.00;2.70;;;;;;;5.68;100.00;99415.41;10340656;28;20116;-63
2023/12/06 01:05:49;;;;;;;2.45;2.25;;;;;;;5.75;100.00;99419.25;10339350;28;20062;-63
2023/12/06 01:10:51;;;;;;;2.95;2.65;;;;;;;5.78;100.00;99425.16;10342505;28;20682;-65
2023/12/06 01:15:52;;;;;;;3.05;2.67;;;;;;;5.81;100.00;99426.72;10334612;28;20041;-64
2023/12/06 01:20:54;;;;;;;3.42;2.65;;;;;;;5.76;100.00;99428.88;10338947;28;20050;-64
2023/12/06 01:25:55;;;;;;;2.83;2.63;;;;;;;5.76;100.00;99428.88;10336975;28;20046;-62
2023/12/06 01:30:57;;;;;;;3.17;2.90;;;;;;;5.84;100.00;99439.72;10339500;28;20054;-64
2023/12/06 01:35:58;;;;;;;2.70;2.40;;;;;;;5.88;100.00;99441.16;10339197;28;20069;-64
2023/12/06 01:41:00;;;;;;;3.80;2.85;;;;;;;5.91;100.00;99440.94;10343447;28;20045;-64
2023/12/06 01:46:01;;;;;;;3.00;2.55;;;;;;;5.89;100.00;99442.84;10351923;28;20503;-64
2023/12/06 01:51:04;;;;;;;3.05;2.30;;;;;;;5.84;100.00;99450.28;10339797;28;21063;-64
2023/12/06 01:56:07;;;;;;;4.05;2.33;;;;;;;5.82;100.00;99454.81;10350597;28;20195;-61
2023/12/06 02:01:08;;;;;;;3.00;2.30;;;;;;;5.70;100.00;99427.50;10336714;28;20062;-63
2023/12/06 02:06:12;;;;;;;2.38;1.98;;;;;;;5.73;100.00;99426.44;10328678;28;20084;-62
2023/12/06 02:11:14;;;;;;;2.22;2.03;;;;;;;5.95;100.00;99463.53;10345775;28;20520;-62
2023/12/06 02:16:16;;;;;;;2.55;2.33;;;;;;;6.00;100.00;99465.84;10352420;28;20062;-63
2023/12/06 02:21:20;;;;;;;3.78;2.88;;;;;;;5.99;100.00;99457.09;10349118;28;20069;-63
2023/12/06 02:26:21;;;;;;;2.63;2.00;;;;;;;6.01;100.00;99463.09;10329371;28;20586;-63
2023/12/06 02:31:23;;;;;;;2.60;2.05;;;;;;;6.00;100.00;99460.56;10348880;28;20734;-63
2023/12/06 02:36:26;;;;;;;3.00;2.65;;;;;;;5.80;100.00;99432.97;10345723;28;20058;-63
2023/12/06 02:41:29;;;;;;;2.40;2.20;;;;;;;6.06;100.00;99464.56;10338566;28;20049;-64
2023/12/06 02:46:31;;;;;;;3.58;2.25;;;;;;;6.06;99.88;99459.28;10341487;28;20087;-63
2023/12/06 02:51:33;;;;;;;3.40;2.20;;;;;;;6.01;99.70;99468.38;10309310;28;20074;-64
2023/12/06 02:56:35;;;;;;;2.42;2.13;;;;;;;6.08;100.00;99467.94;10313963;28;20132;-64
2023/12/06 03:01:36;;;;;;;2.90;2.30;;;;;;;6.07;99.68;99460.97;10336659;28;20135;-63
2023/12/06 03:06:37;;;;;;;3.20;2.60;;;;;;;6.01;99.57;99468.38;10321203;28;20163;-64
2023/12/06 03:11:39;;;;;;;2.33;2.10;;;;;;;6.05;99.27;99479.59;10325953;28;20703;-64
2023/12/06 03:16:41;;;;;;;2.58;2.05;;;;;;;6.07;99.88;99482.94;10340901;28;20132;-64
2023/12/06 03:21:42;;;;;;;3.05;2.38;;;;;;;5.98;100.00;99481.81;10335940;28;20769;-63
2023/12/06 03:26:44;;;;;;;2.28;2.08;;;;;;;5.80;100.00;99462.03;10340657;28;20065;-63
2023/12/06 03:31:45;;;;;;;2.20;2.00;;;;;;;6.01;100.00;99478.94;10331529;28;20126;-63
2023/12/06 03:36:47;;;;;;;5.25;2.53;;;;;;;6.01;100.00;99484.25;10329921;28;20050;-63
2023/12/06 03:41:49;;;;;;;3.30;2.88;;;;;;;6.01;100.00;99489.53;10324113;28;20053;-64
2023/12/06 03:46:50;;;;;;;3.65;2.83;;;;;;;5.99;100.00;99480.88;10333180;28;20271;-63
2023/12/06 03:51:52;;;;;;;2.97;2.67;;;;;;;5.90;99.94;99478.88;10337335;28;20053;-63
2023/12/06 03:56:53;;;;;;;3.45;2.97;;;;;;;5.85;100.00;99478.38;10318169;28;20637;-65
2023/12/06 04:01:57;;;;;;;3.95;3.55;;;;;;;5.75;100.00;99475.56;10344522;28;20070;-64
2023/12/06 04:06:58;;;;;;;3.55;3.25;;;;;;;5.92;100.00;99494.63;10333452;28;20750;-64
2023/12/06 04:12:00;;;;;;;4.57;3.97;;;;;;;5.81;100.00;99495.38;10329170;28;20041;-64
2023/12/06 04:17:01;;;;;;;4.82;3.75;;;;;;;5.89;100.00;99506.25;10347899;28;20057;-63
2023/12/06 04:22:08;;;;;;;4.80;4.10;;;;;;;5.89;100.00;99498.31;10342060;28;20577;-63
2023/12/06 04:27:10;;;;;;;4.90;4.38;;;;;;;5.96;100.00;99494.28;10342887;28;20471;-64
2023/12/06 04:32:11;;;;;;;5.13;4.50;;;;;;;5.87;100.00;99486.16;10339590;28;20046;-64
2023/12/06 04:37:13;;;;;;;5.78;4.88;;;;;;;5.97;100.00;99509.19;10341128;28;20054;-65
2023/12/06 04:42:15;;;;;;;5.20;4.68;;;;;;;5.91;100.00;99499.03;10325674;28;20046;-66
2023/12/06 04:47:18;;;;;;;5.28;4.72;;;;;;;5.96;100.00;99519.84;10342236;28;20084;-63
2023/12/06 04:52:21;;;;;;;4.93;4.50;;;;;;;5.79;100.00;99492.03;10343382;28;20133;-64
2023/12/06 04:57:22;;;;;;;4.97;4.50;;;;;;;5.91;100.00;99525.47;10346010;28;20144;-65
2023/12/06 05:02:24;;;;;;;5.13;4.63;;;;;;;5.99;100.00;99533.72;10351789;28;20720;-64
2023/12/06 05:07:29;;;;;;;5.87;4.57;;;;;;;6.08;100.00;99533.97;10337226;28;20054;-64
2023/12/06 05:12:30;;;;;;;5.50;5.00;;;;;;;6.09;100.00;99533.03;10338499;28;20064;-64
2023/12/06 05:17:32;;;;;;;5.82;5.15;;;;;;;6.15;100.00;99535.22;10348964;28;20073;-63
2023/12/06 05:22:35;;;;;;;6.20;5.60;;;;;;;6.19;100.00;99539.34;10344243;28;20057;-62
2023/12/06 05:27:38;;;;;;;5.65;5.15;;;;;;;6.18;99.96;99535.88;10340941;28;20069;-63
2023/12/06 05:32:39;;;;;;;6.10;5.60;;;;;;;6.17;99.90;99536.81;10341794;28;20424;-65
2023/12/06 05:37:41;;;;;;;7.30;5.53;;;;;;;6.07;100.00;99533.16;10322470;28;20436;-62
2023/12/06 05:42:43;;;;;;;5.60;5.10;;;;;;;6.17;99.73;99562.38;10340398;28;20048;-64
2023/12/06 05:47:44;;;;;;;5.63;5.00;;;;;;;6.07;100.00;99551.66;10337504;28;20038;-64
2023/12/06 05:52:46;;;;;;;6.30;5.70;;;;;;;6.14;99.89;99562.59;10335813;28;20141;-62
2023/12/06 05:57:48;;;;;;;6.80;5.28;;;;;;;6.18;99.83;99564.06;10337049;28;20131;-63
2023/12/06 06:02:51;;;;;;;5.82;5.25;;;;;;;6.21;98.90;99569.13;10329365;28;21728;-64
2023/12/06 06:07:55;;;;;;;5.50;4.93;;;;;;;6.22;98.78;99575.28;10350077;28;20215;-63
2023/12/06 06:12:57;;;;;;;5.80;5.07;;;;;;;6.11;98.68;99589.25;10332786;28;20065;-64
2023/12/06 06:17:58;;;;;;;5.88;5.00;;;;;;;6.10;96.78;99590.22;10347129;28;20140;-64
2023/12/06 06:23:00;;;;;;;5.03;4.53;;;;;;;6.11;97.10;99594.53;10340122;28;20136;-65
2023/12/06 06:28:01;;;;;;;5.07;4.57;;;;;;;5.84;95.09;99562.06;10333752;28;20060;-66
2023/12/06 06:33:03;;;;;;;4.82;4.10;;;;;;;6.06;94.92;99607.25;10336355;28;20130;-65
2023/12/06 06:38:06;;;;;;;4.93;4.45;;;;;;;5.82;93.84;99600.09;10335762;28;20057;-64
2023/12/06 06:43:07;;;;;;;4.68;4.25;;;;;;;5.81;93.91;99606.31;10352261;28;20157;-68
2023/12/06 06:48:09;;;;;;;4.97;4.47;;;;;;;5.89;91.80;99611.06;10344773;28;20133;-64
2023/12/06 06:53:13;;;;;;;4.65;4.18;;;;;;;5.85;89.84;99623.63;10349823;28;20049;-64
2023/12/06 06:58:15;;;;;;;4.40;4.00;;;;;;;5.71;89.77;99629.06;10336782;28;20092;-64
2023/12/06 07:03:17;;;;;;;4.15;3.67;;;;;;;5.66;88.16;99634.66;10337020;28;20061;-63
2023/12/06 07:08:19;;;;;;;4.35;3.95;;;;;;;5.55;87.64;99638.03;10332246;28;20669;-64
2023/12/06 07:13:23;;;;;;;6.05;5.07;;;;;;;5.60;86.42;99649.13;10334854;28;20204;-63
2023/12/06 07:18:25;;;;;;;5.68;5.07;;;;;;;5.49;86.86;99662.22;10339447;28;20053;-63
2023/12/06 07:23:27;;;;;;;5.45;4.38;;;;;;;5.39;87.31;99671.72;10347802;28;20545;-63
2023/12/06 07:28:29;;;;;;;5.25;4.75;;;;;;;5.51;87.16;99675.31;10327860;28;20566;-64
2023/12/06 07:33:35;;;;;;;6.18;5.57;;;;;;;5.42;87.71;99666.22;10333436;28;22230;-63
2023/12/06 07:38:37;;;;;;;6.90;6.13;;;;;;;5.58;86.16;99701.19;10337327;28;20081;-65
2023/12/06 07:43:39;;;;;;;6.70;6.10;;;;;;;5.55;85.29;99706.69;10310329;28;20202;-63
2023/12/06 07:48:40;;;;;;;6.85;6.15;;;;;;;5.43;85.35;99716.28;10338517;28;20056;-64
2023/12/06 07:53:42;;;;;;;6.88;6.18;;;;;;;5.22;86.23;99720.38;10347631;28;20045;-65
2023/12/06 07:58:44;;;;;;;7.75;6.95;;;;;;;5.38;85.92;99730.75;10344321;28;20049;-64
2023/12/06 08:03:48;;;;;;;8.25;6.88;;;;;;;5.32;84.07;99719.66;10345005;28;20157;-63
2023/12/06 08:08:53;;;;;;;8.37;7.57;;;;;;;5.22;83.87;99739.69;10336525;28;20080;-64
2023/12/06 08:13:54;;;;;;;;;;;;;;;5.18;86.03;99751.41;10319462;28;20057;-65
2023/12/06 08:18:56;;;;;;;9.45;8.25;;;;;;;5.34;85.96;99747.75;10343001;28;20016;-65
2023/12/06 08:23:57;;;;;;;9.07;8.23;;;;;;;5.38;83.90;99762.44;10338130;28;20058;-65
2023/12/06 08:29:01;;;;;;;7.90;7.10;;;;;;;5.42;82.54;99774.44;10350829;28;24373;-64
2023/12/06 08:34:03;;;;;;;7.85;7.05;;;;;;;5.28;82.82;99796.50;10336350;28;20080;-64
2023/12/06 08:39:05;;;;;;;7.82;7.13;;;;;;;5.19;83.37;99795.28;10333861;28;20148;-63
2023/12/06 08:44:07;;;;;;;8.20;7.40;;;;;;;5.13;84.37;99793.94;10333838;28;20075;-64
2023/12/06 08:49:08;;;;;;;8.25;7.43;;;;;;;5.26;83.85;99793.94;10333553;28;20144;-64
2023/12/06 08:54:18;;;;;;;8.13;7.32;;;;;;;5.29;83.63;99799.03;10338451;28;20038;-63
2023/12/06 08:59:19;;;;;;;8.85;7.93;;;;;;;5.13;83.79;99803.63;10330706;28;20060;-63
2023/12/06 09:04:21;;;;;;;9.13;7.85;;;;;;;5.18;84.70;99809.47;10327629;28;20073;-63
2023/12/06 09:09:23;;;;;;;9.57;8.45;;;;;;;5.30;83.54;99813.94;10341636;28;20147;-63
2023/12/06 09:14:26;;;;;;;8.88;7.97;;;;;;;5.31;83.86;99805.06;10339750;28;20057;-66
2023/12/06 09:19:27;;;;;;;8.55;7.68;;;;;;;5.38;82.72;99829.25;10333551;28;20060;-65
2023/12/06 09:24:40;;;;;;;9.25;7.95;;;;;;;5.42;84.42;99829.88;10345133;28;20041;-62
2023/12/06 09:29:45;;;;;;;9.77;8.77;;;;;;;5.49;81.78;99839.09;10326064;28;20448;-61
2023/12/06 09:34:47;;;;;;;9.50;8.43;;;;;;;5.48;81.43;99855.91;10331514;28;20054;-63
2023/12/06 09:39:50;;;;;;;10.90;9.80;;;;;;;5.46;83.03;99863.06;10344838;28;20057;-64
2023/12/06 09:44:55;;;;;;;10.98;9.88;;;;;;;5.57;82.36;99865.00;10331859;28;20636;-63
2023/12/06 09:49:57;;;;;;;11.02;9.88;;;;;;;5.61;82.52;99863.84;10339669;28;20523;-63
2023/12/06 09:55:01;;;;;;;11.35;10.23;;;;;;;5.58;81.67;99875.44;10336956;28;20625;-64
2023/12/06 10:00:02;;;;;;;10.85;9.68;;;;;;;5.60;83.13;99876.22;10355667;28;20668;-65
2023/12/06 10:05:05;;;;;;;11.60;10.43;;;;;;;5.59;82.40;99882.44;10342634;28;20057;-64
2023/12/06 10:10:15;;;;;;;12.48;10.23;;;;;;;5.42;84.21;99877.41;10328021;28;20049;-64
2023/12/06 10:15:17;;;;;;;11.60;10.20;;;;;;;5.51;82.12;99879.47;10337931;28;22144;-63
2023/12/06 10:20:22;;;;;;;12.50;10.65;;;;;;;5.62;82.20;99889.31;10334418;28;20041;-61
2023/12/06 10:25:24;;;;;;;11.83;9.33;;;;;;;5.44;81.77;99880.81;10326558;28;20092;-62
2023/12/06 10:30:27;;;;;;;11.73;10.18;;;;;;;5.54;83.76;99899.53;10332380;28;20818;-63
2023/12/06 10:35:30;;;;;;;14.27;11.90;;;;;;;5.55;82.19;99888.84;10333834;28;20046;-64
2023/12/06 10:40:32;;;;;;;11.95;10.50;;;;;;;5.69;82.02;99900.31;10338389;28;20115;-64
2023/12/06 10:45:34;;;;;;;13.45;11.23;;;;;;;5.59;81.77;99900.91;10338995;28;20106;-64
2023/12/06 10:50:36;;;;;;;13.02;10.50;;;;;;;5.59;81.54;99910.66;10333526;28;20064;-63
2023/12/06 10:55:39;;;;;;;12.07;10.85;;;;;;;5.53;82.18;99905.78;10338671;28;20057;-64
2023/12/06 11:00:42;;;;;;;12.10;10.85;;;;;;;5.43;83.16;99910.78;10338040;28;20056;-65
2023/12/06 11:05:52;;;;;;;12.23;10.55;;;;;;;5.47;82.10;99913.13;10340717;28;20053;-66
2023/12/06 11:11:27;;;;;;;12.82;11.52;;;;;;;5.55;82.28;99907.34;10333270;28;20042;-64
2023/12/06 11:16:43;;;;;;;13.23;11.93;;;;;;;5.62;82.03;99910.44;10350520;28;20184;-64
2023/12/06 11:21:45;;;;;;;11.40;10.30;;;;;;;5.63;81.75;99909.47;10336047;28;20418;-65
2023/12/06 11:26:46;;;;;;;12.75;11.48;;;;;;;5.72;82.34;99915.94;10325989;28;20053;-65
2023/12/06 11:31:55;;;;;;;12.55;10.90;;;;;;;5.72;82.81;99905.38;10347524;28;20064;-61
2023/12/06 11:36:57;;;;;;;11.88;10.68;;;;;;;5.76;81.31;99922.75;10332277;28;20132;-63
2023/12/06 11:42:00;;;;;;;11.82;10.32;;;;;;;5.73;81.18;99917.66;10336688;28;20049;-62
2023/12/06 11:47:05;;;;;;;12.35;11.05;;;;;;;5.66;81.98;99896.09;10340604;28;20111;-63
2023/12/06 11:52:10;;;;;;;10.88;9.68;;;;;;;5.79;81.06;99911.97;10316002;28;20661;-64
2023/12/06 11:57:12;;;;;;;12.40;11.20;;;;;;;5.77;81.70;99913.88;10331718;28;20049;-65
2023/12/06 12:02:15;;;;;;;11.25;10.10;;;;;;;5.76;82.15;99918.28;10331408;28;20141;-64
2023/12/06 12:07:17;;;;;;;11.38;10.27;;;;;;;5.69;82.07;99916.16;10336680;28;20699;-65
2023/12/06 12:12:19;;;;;;;11.48;10.32;;;;;;;5.77;82.49;99927.09;10337470;28;20043;-63
2023/12/06 12:17:20;;;;;;;12.18;10.73;;;;;;;5.74;81.88;99914.91;10333440;28;20057;-61
2023/12/06 12:22:24;;;;;;;13.05;11.75;;;;;;;5.83;83.05;99926.66;10322422;28;20053;-63
2023/12/06 12:27:29;;;;;;;12.95;11.45;;;;;;;5.89;82.93;99925.44;10345355;28;20103;-62
2023/12/06 12:32:32;;;;;;;13.43;12.07;;;;;;;5.73;83.13;99936.16;10350336;28;20049;-62
2023/12/06 12:37:34;;;;;;;12.27;11.07;;;;;;;5.74;84.05;99927.28;10337462;28;20131;-62
2023/12/06 12:42:40;;;;;;;12.73;11.43;;;;;;;5.88;83.93;99936.94;10349671;28;20121;-60
2023/12/06 12:47:41;;;;;;;11.80;10.60;;;;;;;5.87;84.16;99936.09;10346550;28;20416;-61
2023/12/06 12:52:44;;;;;;;12.70;11.43;;;;;;;5.83;84.17;99942.53;10344537;28;20058;-68
2023/12/06 12:57:47;;;;;;;12.20;10.88;;;;;;;5.85;84.54;99935.34;10324848;28;20089;-62
2023/12/06 13:02:56;;;;;;;12.25;10.77;;;;;;;5.89;84.21;99950.03;10339674;28;20053;-62
2023/12/06 13:07:58;;;;;;;11.35;10.25;;;;;;;5.85;84.58;99951.19;10341177;28;20066;-63
2023/12/06 13:13:00;;;;;;;14.20;11.85;;;;;;;5.92;84.86;99954.28;10351535;28;20057;-60
2023/12/06 13:18:03;;;;;;;12.27;10.57;;;;;;;5.95;84.31;99952.28;10340833;28;20462;-64
2023/12/06 13:23:05;;;;;;;12.02;10.73;;;;;;;5.96;84.47;99946.06;10340376;28;20085;-63
2023/12/06 13:28:06;;;;;;;11.95;10.75;;;;;;;6.00;85.40;99937.00;10336821;28;20077;-64
2023/12/06 13:33:10;;;;;;;12.93;11.52;;;;;;;6.09;83.90;99966.41;10328562;28;20053;-62
2023/12/06 13:38:14;;;;;;;12.57;11.23;;;;;;;6.17;84.48;99979.94;10334989;28;20048;-62
2023/12/06 13:43:15;;;;;;;11.63;10.52;;;;;;;6.06;83.57;99977.19;10342737;28;20622;-63
2023/12/06 13:48:17;;;;;;;13.38;11.07;;;;;;;5.95;83.92;99954.91;10340307;28;21647;-66
2023/12/06 13:53:19;;;;;;;11.80;10.70;;;;;;;6.06;82.88;99978.00;10354515;28;20139;-64
2023/12/06 13:58:21;;;;;;;13.00;11.00;;;;;;;6.11;82.95;99985.63;10335528;28;20076;-64
2023/12/06 14:03:22;;;;;;;11.80;10.52;;;;;;;6.17;82.78;99983.44;10335745;28;20054;-63
2023/12/06 14:08:24;;;;;;;13.05;11.27;;;;;;;6.18;81.36;100002.78;10334455;28;21071;-64
2023/12/06 14:13:26;;;;;;;13.90;12.32;;;;;;;6.18;82.29;99992.22;10335424;28;20053;-63
2023/12/06 14:18:28;;;;;;;10.80;9.70;;;;;;;6.14;80.73;99994.22;10340081;28;20057;-61
2023/12/06 14:23:30;;;;;;;11.98;10.77;;;;;;;6.14;81.84;100010.09;10338456;28;20065;-62
2023/12/06 14:28:33;;;;;;;11.52;10.32;;;;;;;6.15;82.83;99997.72;10351210;28;20119;-62
2023/12/06 14:33:35;;;;;;;12.98;11.68;;;;;;;6.32;82.83;100015.09;10336795;28;20622;-64
2023/12/06 14:38:37;;;;;;;11.55;9.70;;;;;;;6.27;82.00;100014.56;10336340;28;20073;-63
2023/12/06 14:43:38;;;;;;;11.77;10.48;;;;;;;6.21;82.42;99997.28;10338870;28;20049;-62
2023/12/06 14:48:39;;;;;;;17.52;13.57;;;;;;;6.30;81.78;100006.41;10352740;28;20046;-61
2023/12/06 14:53:41;;;;;;;12.63;10.45;;;;;;;6.29;81.45;100032.03;10336836;28;20068;-62
2023/12/06 14:58:42;;;;;;;22.73;20.13;;;;;;;6.25;81.67;100024.41;10337193;28;20041;-63
2023/12/06 15:03:44;;;;;;;13.38;11.45;;;;;;;6.27;81.68;100044.47;10350143;28;20115;-61
2023/12/06 15:08:45;;;;;;;11.23;10.13;;;;;;;6.29;81.07;100053.16;10335897;28;20079;-62
2023/12/06 15:13:47;;;;;;;11.80;10.60;;;;;;;6.21;80.78;100054.59;10334252;28;20962;-62
2023/12/06 15:18:48;;;;;;;11.70;9.63;;;;;;;6.17;80.55;100064.50;10335377;28;20271;-63
2023/12/06 15:23:50;;;;;;;16.00;11.50;;;;;;;6.22;80.92;100078.31;10333954;28;20057;-67
2023/12/06 15:28:51;;;;;;;13.57;11.52;;;;;;;6.20;80.93;100074.91;10326232;28;20123;-67
2023/12/06 15:33:57;;;;;;;12.27;11.02;;;;;;;6.16;81.66;100089.28;10326756;28;20240;-68
2023/12/06 15:38:59;;;;;;;11.73;10.52;;;;;;;6.25;82.19;100090.47;10335649;28;20081;-66
2023/12/06 15:44:01;;;;;;;13.85;11.63;;;;;;;6.15;81.50;100072.53;10337264;28;20698;-68
2023/12/06 15:49:02;;;;;;;12.98;11.57;;;;;;;6.30;83.06;100101.59;10337594;28;20341;-67
2023/12/06 15:54:04;;;;;;;11.50;10.40;;;;;;;6.27;83.43;100123.78;10349671;28;20132;-66
2023/12/06 15:59:09;;;;;;;13.93;12.40;;;;;;;6.25;81.69;100124.84;10334890;28;20053;-65
2023/12/06 16:04:16;;;;;;;12.63;11.30;;;;;;;6.20;82.70;100138.34;10334776;28;20062;-66
2023/12/06 16:09:20;;;;;;;11.90;10.70;;;;;;;6.21;81.92;100145.31;10334344;28;20135;-65
2023/12/06 16:14:23;;;;;;;11.38;10.27;;;;;;;6.23;81.62;100156.66;10335307;28;20125;-65
2023/12/06 16:19:27;;;;;;;11.52;10.32;;;;;;;6.27;81.79;100157.31;10336450;28;20056;-65
2023/12/06 16:24:29;;;;;;;14.50;10.85;;;;;;;6.29;81.35;100173.91;10322434;28;20780;-66
2023/12/06 16:29:31;;;;;;;11.77;10.52;;;;;;;6.20;81.15;100167.44;10321508;28;20641;-66
2023/12/06 16:34:32;;;;;;;11.43;10.32;;;;;;;6.19;81.05;100186.88;10336104;28;20079;-66
2023/12/06 16:39:34;;;;;;;12.35;10.07;;;;;;;6.21;81.25;100198.19;10337277;28;20049;-66
2023/12/06 16:44:36;;;;;;;10.98;9.75;;;;;;;6.19;80.77;100211.50;10337213;28;20046;-66
2023/12/06 16:49:39;;;;;;;10.80;9.57;;;;;;;6.05;80.89;100213.31;10334429;28;20056;-67
2023/12/06 16:54:45;;;;;;;12.20;9.80;;;;;;;6.08;80.60;100207.81;10342049;28;20059;-66
2023/12/06 16:59:47;;;;;;;13.13;9.75;;;;;;;6.23;81.31;100217.47;10354016;28;20058;-66
2023/12/06 17:04:49;;;;;;;11.63;9.82;;;;;;;6.23;80.48;100225.38;10350238;28;20054;-66
2023/12/06 17:09:51;;;;;;;10.27;9.20;;;;;;;6.22;80.59;100230.78;10331367;28;20053;-66
2023/12/06 17:14:52;;;;;;;12.32;10.98;;;;;;;6.23;79.39;100246.53;10333448;28;20133;-66
2023/12/06 17:20:00;;;;;;;10.63;9.52;;;;;;;6.21;80.64;100251.03;10326743;28;20049;-66
2023/12/06 17:25:03;;;;;;;10.88;9.32;;;;;;;6.24;79.79;100252.66;10336875;28;20455;-66
2023/12/06 17:30:06;;;;;;;11.85;10.52;;;;;;;6.16;80.73;100237.28;10351955;28;20057;-66
2023/12/06 17:35:08;;;;;;;11.73;10.15;;;;;;;6.25;80.84;100257.00;10343548;28;20075;-66
2023/12/06 17:40:14;;;;;;;10.52;8.88;;;;;;;6.35;80.51;100273.97;10358715;28;20071;-66
2023/12/06 17:45:16;;;;;;;11.50;9.25;;;;;;;6.37;81.12;100269.47;10340030;28;20056;-66
2023/12/06 17:50:19;;;;;;;11.27;9.52;;;;;;;6.33;80.63;100281.16;10334249;28;20049;-69
2023/12/06 17:55:21;;;;;;;12.47;11.17;;;;;;;6.37;82.81;100290.59;10337061;28;20045;-65
2023/12/06 18:00:23;;;;;;;12.52;10.35;;;;;;;6.38;82.76;100294.97;10335897;28;20113;-68
2023/12/06 18:05:24;;;;;;;11.95;10.75;;;;;;;6.30;83.17;100286.63;10342416;28;20053;-66
2023/12/06 18:10:28;;;;;;;10.25;9.10;;;;;;;6.32;83.74;100296.19;10338127;28;20132;-65
2023/12/06 18:15:30;;;;;;;12.63;9.45;;;;;;;6.35;84.43;100296.00;10339495;28;20052;-64
2023/12/06 18:20:31;;;;;;;12.82;9.48;;;;;;;6.35;83.10;100297.75;10336374;28;20055;-65
2023/12/06 18:25:33;;;;;;;10.00;8.98;;;;;;;6.30;82.98;100289.28;10353398;28;20050;-66
2023/12/06 18:30:39;;;;;;;11.95;9.68;;;;;;;6.35;82.74;100305.69;10336986;28;20085;-65
2023/12/06 18:35:40;;;;;;;11.50;8.95;;;;;;;6.33;83.28;100311.09;10344918;28;20053;-63
2023/12/06 18:40:43;;;;;;;10.73;9.63;;;;;;;6.30;83.59;100313.91;10341377;28;20503;-65
2023/12/06 18:45:46;;;;;;;10.07;8.98;;;;;;;6.32;82.58;100317.34;10346779;28;20057;-65
2023/12/06 18:50:48;;;;;;;10.32;8.70;;;;;;;6.29;81.92;100311.38;10341041;28;20059;-66
2023/12/06 18:55:50;;;;;;;9.95;8.95;;;;;;;6.21;82.06;100319.78;10338177;28;20531;-67
2023/12/06 19:00:51;;;;;;;9.85;8.77;;;;;;;6.18;82.62;100319.97;10338024;28;20419;-65
2023/12/06 19:05:53;;;;;;;10.48;8.75;;;;;;;6.12;82.35;100325.63;10338922;28;20133;-66
2023/12/06 19:10:56;;;;;;;12.07;8.57;;;;;;;6.16;82.13;100325.34;10340088;28;20124;-65
2023/12/06 19:16:02;;;;;;;9.80;7.97;;;;;;;6.19;81.91;100327.81;10325887;28;20068;-65
2023/12/06 19:21:04;;;;;;;9.23;7.45;;;;;;;6.11;81.64;100327.44;10344269;28;20053;-63
2023/12/06 19:26:06;;;;;;;10.98;8.07;;;;;;;6.17;81.68;100334.13;10332423;28;20514;-64
2023/12/06 19:31:09;;;;;;;11.18;7.80;;;;;;;6.24;81.70;100334.59;10339005;28;20049;-64
2023/12/06 19:36:11;;;;;;;8.98;8.00;;;;;;;6.27;82.20;100345.84;10342259;28;20049;-65
2023/12/06 19:41:15;;;;;;;10.40;9.32;;;;;;;6.27;82.41;100348.47;10321120;28;20239;-65
2023/12/06 19:46:17;;;;;;;9.65;8.18;;;;;;;6.32;81.99;100349.06;10340531;28;20060;-65
2023/12/06 19:51:19;;;;;;;9.70;7.55;;;;;;;6.28;81.92;100349.34;10335095;28;20069;-64
2023/12/06 19:56:21;;;;;;;13.30;8.00;;;;;;;6.29;80.94;100332.53;10338503;28;20053;-64
2023/12/06 20:01:22;;;;;;;9.20;8.15;;;;;;;6.31;81.01;100331.50;10338604;28;20081;-63
2023/12/06 20:06:25;;;;;;;11.25;8.70;;;;;;;6.30;80.46;100342.16;10338376;28;20065;-63
2023/12/06 20:11:26;;;;;;;9.00;6.78;;;;;;;6.20;80.26;100344.53;10312066;28;20085;-64
2023/12/06 20:16:27;;;;;;;10.30;8.15;;;;;;;6.13;80.30;100344.03;10326037;28;20447;-63
2023/12/06 20:21:32;;;;;;;9.65;6.85;;;;;;;6.18;80.73;100349.91;10348658;28;20056;-63
2023/12/06 20:26:34;;;;;;;11.50;7.90;;;;;;;6.11;81.83;100355.63;10349675;28;20050;-63
2023/12/06 20:31:38;;;;;;;9.57;8.25;;;;;;;6.23;81.39;100357.56;10342954;28;21184;-63
2023/12/06 20:36:40;;;;;;;13.63;8.57;;;;;;;6.21;81.23;100371.81;10336853;28;20431;-63
2023/12/06 20:41:41;;;;;;;9.88;8.57;;;;;;;6.17;80.52;100366.69;10350190;28;20045;-63
2023/12/06 20:46:42;;;;;;;8.48;7.60;;;;;;;6.13;80.33;100353.78;10337321;28;20179;-64
2023/12/06 20:51:44;;;;;;;12.02;9.43;;;;;;;6.28;82.06;100368.69;10329992;28;22446;-64
2023/12/06 20:56:46;;;;;;;11.98;8.77;;;;;;;6.25;81.09;100366.25;10335753;28;20062;-64
2023/12/06 21:01:50;;;;;;;8.75;7.85;;;;;;;6.16;80.82;100358.88;10340008;28;20514;-62
2023/12/06 21:06:54;;;;;;;9.27;7.93;;;;;;;6.26;81.84;100381.16;10344884;28;20061;-63
2023/12/06 21:11:57;;;;;;;11.13;9.40;;;;;;;6.32;81.88;100383.44;10343339;28;20057;-63
2023/12/06 21:16:59;;;;;;;10.10;8.30;;;;;;;6.34;81.86;100394.75;10336506;28;20595;-65
2023/12/06 21:22:01;;;;;;;10.45;8.55;;;;;;;6.30;80.81;100384.47;10341047;28;20081;-64
2023/12/06 21:27:03;;;;;;;12.07;8.85;;;;;;;6.27;80.83;100388.13;10341254;28;20065;-62
2023/12/06 21:32:05;;;;;;;10.60;7.50;;;;;;;6.22;80.83;100384.09;10351620;28;20606;-62
2023/12/06 21:37:06;;;;;;;9.18;7.75;;;;;;;6.18;81.38;100367.53;10340567;28;20412;-64
2023/12/06 21:42:08;;;;;;;10.43;8.75;;;;;;;6.12;80.81;100389.06;10339419;28;20072;-64
2023/12/06 21:47:09;;;;;;;10.45;8.68;;;;;;;6.00;80.84;100378.28;10347531;28;20050;-64
2023/12/06 21:52:11;;;;;;;8.77;7.60;;;;;;;6.12;80.91;100394.34;10341137;28;20817;-64
2023/12/06 21:57:12;;;;;;;8.90;7.53;;;;;;;6.12;82.05;100410.22;10337675;28;20100;-65
2023/12/06 22:02:13;;;;;;;9.32;7.47;;;;;;;6.12;81.61;100412.84;10343357;28;20615;-62
2023/12/06 22:07:15;;;;;;;9.98;8.27;;;;;;;6.06;82.40;100413.22;10334130;28;20058;-62
2023/12/06 22:12:17;;;;;;;9.95;8.95;;;;;;;6.04;82.12;100418.59;10338557;28;20220;-62
2023/12/06 22:17:18;;;;;;;10.25;9.00;;;;;;;6.00;81.60;100412.66;10339298;28;20095;-63
2023/12/06 22:22:19;;;;;;;11.77;8.45;;;;;;;6.08;81.98;100427.19;10352984;28;20045;-62
2023/12/06 22:27:21;;;;;;;13.82;9.07;;;;;;;6.05;81.45;100435.28;10332556;28;20067;-62
2023/12/06 22:32:23;;;;;;;10.98;9.02;;;;;;;5.95;82.00;100438.44;10352137;28;20056;-63
2023/12/06 22:37:27;;;;;;;7.72;6.85;;;;;;;5.98;81.38;100433.00;10340740;28;20179;-62
2023/12/06 22:42:32;;;;;;;8.48;7.57;;;;;;;5.91;81.92;100428.97;10332167;28;20049;-62
2023/12/06 22:47:33;;;;;;;7.53;5.57;;;;;;;5.99;82.19;100439.13;10347818;28;20084;-62
2023/12/06 22:52:35;;;;;;;7.78;5.80;;;;;;;6.05;81.81;100443.22;10346204;28;20132;-62
2023/12/06 22:57:36;;;;;;;7.78;6.07;;;;;;;6.00;81.97;100438.19;10334551;28;20045;-63
2023/12/06 23:02:38;;;;;;;6.78;5.50;;;;;;;6.06;81.99;100447.56;10331447;28;20053;-63
2023/12/06 23:07:39;;;;;;;8.77;5.47;;;;;;;6.03;81.59;100448.59;10333935;28;20046;-62
2023/12/06 23:12:41;;;;;;;5.35;4.85;;;;;;;5.89;82.40;100435.31;10336551;28;20046;-62
2023/12/06 23:17:43;;;;;;;7.43;4.97;;;;;;;5.96;82.17;100447.22;10336812;28;20045;-62